sensor_id;sensor_type;location;lat;lon;timestamp;P1;durP1;ratioP1;P2;durP2;ratioP2
76105;SDS011;64832;45.274;5.880;2023-11-22T00:00:07;0.68;;;0.60;;
76105;SDS011;64832;45.274;5.880;2023-11-22T00:02:34;2.00;;;0.57;;
76105;SDS011;64832;45.274;5.880;2023-11-22T00:05:00;2.05;;;0.60;;
76105;SDS011;64832;45.274;5.880;2023-11-22T00:07:25;2.92;;;0.63;;
76105;SDS011;64832;45.274;5.880;2023-11-22T00:09:54;0.90;;;0.45;;
76105;SDS011;64832;45.274;5.880;2023-11-22T00:12:20;2.03;;;0.75;;
76105;SDS011;64832;45.274;5.880;2023-11-22T00:14:47;3.03;;;0.50;;
76105;SDS011;64832;45.274;5.880;2023-11-22T00:17:12;0.80;;;0.40;;
76105;SDS011;64832;45.274;5.880;2023-11-22T00:19:38;2.03;;;0.68;;
76105;SDS011;64832;45.274;5.880;2023-11-22T00:22:03;1.42;;;0.55;;
76105;SDS011;64832;45.274;5.880;2023-11-22T00:24:36;1.07;;;0.70;;
76105;SDS011;64832;45.274;5.880;2023-11-22T00:27:02;1.35;;;0.60;;
76105;SDS011;64832;45.274;5.880;2023-11-22T00:29:27;0.55;;;0.52;;
76105;SDS011;64832;45.274;5.880;2023-11-22T00:31:53;0.73;;;0.50;;
76105;SDS011;64832;45.274;5.880;2023-11-22T00:34:18;2.45;;;0.80;;
76105;SDS011;64832;45.274;5.880;2023-11-22T00:36:43;2.13;;;0.60;;
76105;SDS011;64832;45.274;5.880;2023-11-22T00:39:09;1.20;;;0.70;;
76105;SDS011;64832;45.274;5.880;2023-11-22T00:41:38;0.63;;;0.57;;
76105;SDS011;64832;45.274;5.880;2023-11-22T00:44:03;2.13;;;0.60;;
76105;SDS011;64832;45.274;5.880;2023-11-22T00:46:30;1.17;;;0.77;;
76105;SDS011;64832;45.274;5.880;2023-11-22T00:48:56;3.05;;;0.70;;
76105;SDS011;64832;45.274;5.880;2023-11-22T00:51:22;0.52;;;0.50;;
76105;SDS011;64832;45.274;5.880;2023-11-22T00:53:47;1.08;;;0.50;;
76105;SDS011;64832;45.274;5.880;2023-11-22T00:56:12;0.90;;;0.70;;
76105;SDS011;64832;45.274;5.880;2023-11-22T00:58:38;0.95;;;0.60;;
76105;SDS011;64832;45.274;5.880;2023-11-22T01:01:03;0.50;;;0.50;;
76105;SDS011;64832;45.274;5.880;2023-11-22T01:03:30;2.60;;;0.60;;
76105;SDS011;64832;45.274;5.880;2023-11-22T01:05:55;0.50;;;0.50;;
76105;SDS011;64832;45.274;5.880;2023-11-22T01:08:21;0.68;;;0.50;;
76105;SDS011;64832;45.274;5.880;2023-11-22T01:10:47;3.15;;;0.50;;
76105;SDS011;64832;45.274;5.880;2023-11-22T01:13:12;1.17;;;0.73;;
76105;SDS011;64832;45.274;5.880;2023-11-22T01:15:38;0.63;;;0.57;;
76105;SDS011;64832;45.274;5.880;2023-11-22T01:18:04;0.68;;;0.40;;
76105;SDS011;64832;45.274;5.880;2023-11-22T01:20:29;1.38;;;0.50;;
76105;SDS011;64832;45.274;5.880;2023-11-22T01:22:55;0.82;;;0.63;;
76105;SDS011;64832;45.274;5.880;2023-11-22T01:25:20;0.52;;;0.40;;
76105;SDS011;64832;45.274;5.880;2023-11-22T01:27:45;1.05;;;0.60;;
76105;SDS011;64832;45.274;5.880;2023-11-22T01:30:11;0.43;;;0.30;;
76105;SDS011;64832;45.274;5.880;2023-11-22T01:32:37;1.88;;;0.50;;
76105;SDS011;64832;45.274;5.880;2023-11-22T01:35:02;0.75;;;0.40;;
76105;SDS011;64832;45.274;5.880;2023-11-22T01:37:30;1.02;;;0.52;;
76105;SDS011;64832;45.274;5.880;2023-11-22T01:39:56;0.73;;;0.50;;
76105;SDS011;64832;45.274;5.880;2023-11-22T01:42:22;0.70;;;0.60;;
76105;SDS011;64832;45.274;5.880;2023-11-22T01:44:48;0.80;;;0.50;;
76105;SDS011;64832;45.274;5.880;2023-11-22T01:47:14;1.63;;;0.57;;
76105;SDS011;64832;45.274;5.880;2023-11-22T01:49:40;1.92;;;0.60;;
76105;SDS011;64832;45.274;5.880;2023-11-22T01:52:05;2.40;;;0.40;;
76105;SDS011;64832;45.274;5.880;2023-11-22T01:54:31;0.80;;;0.55;;
76105;SDS011;64832;45.274;5.880;2023-11-22T01:56:57;0.52;;;0.40;;
76105;SDS011;64832;45.274;5.880;2023-11-22T01:59:24;1.23;;;0.50;;
76105;SDS011;64832;45.274;5.880;2023-11-22T02:01:51;1.10;;;0.50;;
76105;SDS011;64832;45.274;5.880;2023-11-22T02:04:17;1.85;;;0.50;;
76105;SDS011;64832;45.274;5.880;2023-11-22T02:06:42;0.95;;;0.50;;
76105;SDS011;64832;45.274;5.880;2023-11-22T02:09:07;1.73;;;0.50;;
76105;SDS011;64832;45.274;5.880;2023-11-22T02:11:38;2.20;;;0.43;;
76105;SDS011;64832;45.274;5.880;2023-11-22T02:14:04;0.82;;;0.50;;
76105;SDS011;64832;45.274;5.880;2023-11-22T02:16:32;0.88;;;0.45;;
76105;SDS011;64832;45.274;5.880;2023-11-22T02:18:57;1.27;;;0.55;;
76105;SDS011;64832;45.274;5.880;2023-11-22T02:21:23;0.40;;;0.40;;
76105;SDS011;64832;45.274;5.880;2023-11-22T02:23:48;1.52;;;0.55;;
76105;SDS011;64832;45.274;5.880;2023-11-22T02:26:14;1.23;;;0.50;;
76105;SDS011;64832;45.274;5.880;2023-11-22T02:28:42;0.47;;;0.47;;
76105;SDS011;64832;45.274;5.880;2023-11-22T02:31:08;1.60;;;0.60;;
76105;SDS011;64832;45.274;5.880;2023-11-22T02:33:33;2.03;;;0.50;;
76105;SDS011;64832;45.274;5.880;2023-11-22T02:35:59;2.38;;;0.50;;
76105;SDS011;64832;45.274;5.880;2023-11-22T02:38:24;1.98;;;0.45;;
76105;SDS011;64832;45.274;5.880;2023-11-22T02:40:51;1.02;;;0.30;;
76105;SDS011;64832;45.274;5.880;2023-11-22T02:43:17;0.50;;;0.40;;
76105;SDS011;64832;45.274;5.880;2023-11-22T02:45:42;0.60;;;0.50;;
76105;SDS011;64832;45.274;5.880;2023-11-22T02:48:08;1.05;;;0.40;;
76105;SDS011;64832;45.274;5.880;2023-11-22T02:50:34;0.40;;;0.40;;
76105;SDS011;64832;45.274;5.880;2023-11-22T02:53:02;0.35;;;0.35;;
76105;SDS011;64832;45.274;5.880;2023-11-22T02:55:28;1.05;;;0.32;;
76105;SDS011;64832;45.274;5.880;2023-11-22T02:57:53;1.73;;;0.50;;
76105;SDS011;64832;45.274;5.880;2023-11-22T03:00:19;2.80;;;0.50;;
76105;SDS011;64832;45.274;5.880;2023-11-22T03:02:47;0.65;;;0.52;;
76105;SDS011;64832;45.274;5.880;2023-11-22T03:05:18;1.65;;;0.50;;
76105;SDS011;64832;45.274;5.880;2023-11-22T03:07:45;0.47;;;0.30;;
76105;SDS011;64832;45.274;5.880;2023-11-22T03:10:10;1.13;;;0.32;;
76105;SDS011;64832;45.274;5.880;2023-11-22T03:12:35;1.35;;;0.40;;
76105;SDS011;64832;45.274;5.880;2023-11-22T03:15:01;0.63;;;0.30;;
76105;SDS011;64832;45.274;5.880;2023-11-22T03:17:30;1.40;;;0.38;;
76105;SDS011;64832;45.274;5.880;2023-11-22T03:19:56;3.08;;;0.47;;
76105;SDS011;64832;45.274;5.880;2023-11-22T03:22:26;3.03;;;0.60;;
76105;SDS011;64832;45.274;5.880;2023-11-22T03:24:55;1.67;;;0.93;;
76105;SDS011;64832;45.274;5.880;2023-11-22T03:27:21;2.22;;;0.50;;
76105;SDS011;64832;45.274;5.880;2023-11-22T03:29:48;1.10;;;0.40;;
76105;SDS011;64832;45.274;5.880;2023-11-22T03:32:13;1.38;;;0.60;;
76105;SDS011;64832;45.274;5.880;2023-11-22T03:34:39;0.65;;;0.35;;
76105;SDS011;64832;45.274;5.880;2023-11-22T03:37:04;2.97;;;0.50;;
76105;SDS011;64832;45.274;5.880;2023-11-22T03:39:30;2.35;;;0.47;;
76105;SDS011;64832;45.274;5.880;2023-11-22T03:41:55;0.70;;;0.50;;
76105;SDS011;64832;45.274;5.880;2023-11-22T03:44:20;0.60;;;0.55;;
76105;SDS011;64832;45.274;5.880;2023-11-22T03:46:46;1.98;;;0.40;;
76105;SDS011;64832;45.274;5.880;2023-11-22T03:49:11;2.03;;;0.40;;
76105;SDS011;64832;45.274;5.880;2023-11-22T03:51:38;1.42;;;0.47;;
76105;SDS011;64832;45.274;5.880;2023-11-22T03:54:04;3.55;;;0.60;;
76105;SDS011;64832;45.274;5.880;2023-11-22T03:56:30;1.58;;;0.70;;
76105;SDS011;64832;45.274;5.880;2023-11-22T03:58:55;2.75;;;0.50;;
76105;SDS011;64832;45.274;5.880;2023-11-22T04:01:21;2.35;;;0.40;;
76105;SDS011;64832;45.274;5.880;2023-11-22T04:03:47;0.73;;;0.40;;
76105;SDS011;64832;45.274;5.880;2023-11-22T04:06:16;2.60;;;0.40;;
76105;SDS011;64832;45.274;5.880;2023-11-22T04:08:43;2.72;;;0.50;;
76105;SDS011;64832;45.274;5.880;2023-11-22T04:11:09;3.55;;;0.70;;
76105;SDS011;64832;45.274;5.880;2023-11-22T04:13:35;1.20;;;0.40;;
76105;SDS011;64832;45.274;5.880;2023-11-22T04:16:01;0.63;;;0.40;;
76105;SDS011;64832;45.274;5.880;2023-11-22T04:18:26;0.63;;;0.52;;
76105;SDS011;64832;45.274;5.880;2023-11-22T04:20:52;0.80;;;0.50;;
76105;SDS011;64832;45.274;5.880;2023-11-22T04:23:17;2.83;;;0.40;;
76105;SDS011;64832;45.274;5.880;2023-11-22T04:25:43;1.58;;;0.30;;
76105;SDS011;64832;45.274;5.880;2023-11-22T04:28:08;1.67;;;0.55;;
76105;SDS011;64832;45.274;5.880;2023-11-22T04:30:35;2.28;;;0.50;;
76105;SDS011;64832;45.274;5.880;2023-11-22T04:33:00;0.40;;;0.40;;
76105;SDS011;64832;45.274;5.880;2023-11-22T04:35:26;1.27;;;0.50;;
76105;SDS011;64832;45.274;5.880;2023-11-22T04:37:52;0.60;;;0.50;;
76105;SDS011;64832;45.274;5.880;2023-11-22T04:40:18;1.95;;;0.50;;
76105;SDS011;64832;45.274;5.880;2023-11-22T04:42:43;1.35;;;0.50;;
76105;SDS011;64832;45.274;5.880;2023-11-22T04:45:09;1.70;;;0.50;;
76105;SDS011;64832;45.274;5.880;2023-11-22T04:47:35;1.77;;;0.60;;
76105;SDS011;64832;45.274;5.880;2023-11-22T04:50:00;0.77;;;0.60;;
76105;SDS011;64832;45.274;5.880;2023-11-22T04:52:25;4.00;;;0.50;;
76105;SDS011;64832;45.274;5.880;2023-11-22T04:54:51;1.08;;;0.45;;
76105;SDS011;64832;45.274;5.880;2023-11-22T04:57:16;2.05;;;0.50;;
76105;SDS011;64832;45.274;5.880;2023-11-22T04:59:42;3.10;;;0.50;;
76105;SDS011;64832;45.274;5.880;2023-11-22T05:02:07;1.83;;;0.50;;
76105;SDS011;64832;45.274;5.880;2023-11-22T05:04:33;0.82;;;0.30;;
76105;SDS011;64832;45.274;5.880;2023-11-22T05:06:58;2.25;;;0.43;;
76105;SDS011;64832;45.274;5.880;2023-11-22T05:09:24;1.58;;;0.43;;
76105;SDS011;64832;45.274;5.880;2023-11-22T05:11:49;0.88;;;0.60;;
76105;SDS011;64832;45.274;5.880;2023-11-22T05:14:15;1.05;;;0.40;;
76105;SDS011;64832;45.274;5.880;2023-11-22T05:16:40;2.47;;;0.52;;
76105;SDS011;64832;45.274;5.880;2023-11-22T05:19:05;1.13;;;0.40;;
76105;SDS011;64832;45.274;5.880;2023-11-22T05:21:31;1.13;;;0.52;;
76105;SDS011;64832;45.274;5.880;2023-11-22T05:23:57;2.15;;;0.45;;
76105;SDS011;64832;45.274;5.880;2023-11-22T05:26:23;2.45;;;0.52;;
76105;SDS011;64832;45.274;5.880;2023-11-22T05:28:48;1.65;;;0.47;;
76105;SDS011;64832;45.274;5.880;2023-11-22T05:31:14;1.40;;;0.30;;
76105;SDS011;64832;45.274;5.880;2023-11-22T05:33:39;2.53;;;0.47;;
76105;SDS011;64832;45.274;5.880;2023-11-22T05:36:06;1.50;;;0.47;;
76105;SDS011;64832;45.274;5.880;2023-11-22T05:38:32;3.05;;;0.45;;
76105;SDS011;64832;45.274;5.880;2023-11-22T05:41:00;2.47;;;0.45;;
76105;SDS011;64832;45.274;5.880;2023-11-22T05:43:26;0.47;;;0.30;;
76105;SDS011;64832;45.274;5.880;2023-11-22T05:45:55;1.35;;;0.40;;
76105;SDS011;64832;45.274;5.880;2023-11-22T05:48:20;0.50;;;0.40;;
76105;SDS011;64832;45.274;5.880;2023-11-22T05:50:46;2.13;;;0.50;;
76105;SDS011;64832;45.274;5.880;2023-11-22T05:53:12;2.20;;;0.50;;
76105;SDS011;64832;45.274;5.880;2023-11-22T05:55:44;0.75;;;0.47;;
76105;SDS011;64832;45.274;5.880;2023-11-22T05:58:15;1.10;;;0.30;;
76105;SDS011;64832;45.274;5.880;2023-11-22T06:00:44;1.27;;;0.50;;
76105;SDS011;64832;45.274;5.880;2023-11-22T06:03:10;1.92;;;0.40;;
76105;SDS011;64832;45.274;5.880;2023-11-22T06:05:36;1.75;;;0.55;;
76105;SDS011;64832;45.274;5.880;2023-11-22T06:08:02;1.85;;;0.40;;
76105;SDS011;64832;45.274;5.880;2023-11-22T06:10:27;2.08;;;0.40;;
76105;SDS011;64832;45.274;5.880;2023-11-22T06:12:53;1.23;;;0.45;;
76105;SDS011;64832;45.274;5.880;2023-11-22T06:15:18;0.70;;;0.50;;
76105;SDS011;64832;45.274;5.880;2023-11-22T06:17:46;2.40;;;0.65;;
76105;SDS011;64832;45.274;5.880;2023-11-22T06:20:12;0.73;;;0.40;;
76105;SDS011;64832;45.274;5.880;2023-11-22T06:22:38;5.15;;;0.60;;
76105;SDS011;64832;45.274;5.880;2023-11-22T06:25:06;1.50;;;0.50;;
76105;SDS011;64832;45.274;5.880;2023-11-22T06:27:33;3.95;;;0.63;;
76105;SDS011;64832;45.274;5.880;2023-11-22T06:29:58;2.05;;;0.50;;
76105;SDS011;64832;45.274;5.880;2023-11-22T06:32:24;0.98;;;0.40;;
76105;SDS011;64832;45.274;5.880;2023-11-22T06:34:49;1.80;;;0.50;;
76105;SDS011;64832;45.274;5.880;2023-11-22T06:37:15;1.60;;;0.50;;
76105;SDS011;64832;45.274;5.880;2023-11-22T06:39:40;2.78;;;0.70;;
76105;SDS011;64832;45.274;5.880;2023-11-22T06:42:06;2.95;;;0.95;;
76105;SDS011;64832;45.274;5.880;2023-11-22T06:44:31;1.33;;;1.10;;
76105;SDS011;64832;45.274;5.880;2023-11-22T06:46:57;2.33;;;1.00;;
76105;SDS011;64832;45.274;5.880;2023-11-22T06:49:22;1.27;;;1.00;;
76105;SDS011;64832;45.274;5.880;2023-11-22T06:51:48;1.45;;;1.00;;
76105;SDS011;64832;45.274;5.880;2023-11-22T06:54:13;1.23;;;0.63;;
76105;SDS011;64832;45.274;5.880;2023-11-22T06:56:38;1.33;;;0.70;;
76105;SDS011;64832;45.274;5.880;2023-11-22T06:59:04;2.15;;;0.70;;
76105;SDS011;64832;45.274;5.880;2023-11-22T07:01:29;1.00;;;0.60;;
76105;SDS011;64832;45.274;5.880;2023-11-22T07:03:54;2.10;;;0.60;;
76105;SDS011;64832;45.274;5.880;2023-11-22T07:06:20;1.38;;;0.63;;
76105;SDS011;64832;45.274;5.880;2023-11-22T07:08:47;3.05;;;0.68;;
76105;SDS011;64832;45.274;5.880;2023-11-22T07:11:13;1.63;;;0.60;;
76105;SDS011;64832;45.274;5.880;2023-11-22T07:13:48;0.52;;;0.47;;
76105;SDS011;64832;45.274;5.880;2023-11-22T07:16:13;2.35;;;0.63;;
76105;SDS011;64832;45.274;5.880;2023-11-22T07:18:40;1.52;;;0.50;;
76105;SDS011;64832;45.274;5.880;2023-11-22T07:21:05;1.70;;;0.50;;
76105;SDS011;64832;45.274;5.880;2023-11-22T07:23:31;1.33;;;0.63;;
76105;SDS011;64832;45.274;5.880;2023-11-22T07:25:56;0.95;;;0.60;;
76105;SDS011;64832;45.274;5.880;2023-11-22T07:28:21;2.80;;;0.70;;
76105;SDS011;64832;45.274;5.880;2023-11-22T07:30:47;1.15;;;0.63;;
76105;SDS011;64832;45.274;5.880;2023-11-22T07:33:13;1.20;;;0.60;;
76105;SDS011;64832;45.274;5.880;2023-11-22T07:35:40;1.40;;;0.73;;
76105;SDS011;64832;45.274;5.880;2023-11-22T07:38:05;10.50;;;1.05;;
76105;SDS011;64832;45.274;5.880;2023-11-22T07:40:33;5.90;;;0.70;;
76105;SDS011;64832;45.274;5.880;2023-11-22T07:42:59;6.88;;;0.68;;
76105;SDS011;64832;45.274;5.880;2023-11-22T07:45:25;0.68;;;0.60;;
76105;SDS011;64832;45.274;5.880;2023-11-22T07:47:50;2.03;;;0.50;;
76105;SDS011;64832;45.274;5.880;2023-11-22T07:50:18;1.17;;;0.65;;
76105;SDS011;64832;45.274;5.880;2023-11-22T07:52:44;3.70;;;0.70;;
76105;SDS011;64832;45.274;5.880;2023-11-22T07:55:10;6.53;;;0.70;;
76105;SDS011;64832;45.274;5.880;2023-11-22T07:57:36;2.30;;;0.60;;
76105;SDS011;64832;45.274;5.880;2023-11-22T08:00:03;1.08;;;0.63;;
76105;SDS011;64832;45.274;5.880;2023-11-22T08:02:33;2.25;;;0.80;;
76105;SDS011;64832;45.274;5.880;2023-11-22T08:04:59;3.10;;;0.60;;
76105;SDS011;64832;45.274;5.880;2023-11-22T08:07:26;1.17;;;0.60;;
76105;SDS011;64832;45.274;5.880;2023-11-22T08:09:53;2.42;;;0.60;;
76105;SDS011;64832;45.274;5.880;2023-11-22T08:12:18;1.05;;;0.50;;
76105;SDS011;64832;45.274;5.880;2023-11-22T08:14:44;2.67;;;0.40;;
76105;SDS011;64832;45.274;5.880;2023-11-22T08:17:09;1.05;;;0.47;;
76105;SDS011;64832;45.274;5.880;2023-11-22T08:19:38;1.38;;;0.60;;
76105;SDS011;64832;45.274;5.880;2023-11-22T08:22:05;1.85;;;0.70;;
76105;SDS011;64832;45.274;5.880;2023-11-22T08:24:30;0.95;;;0.50;;
76105;SDS011;64832;45.274;5.880;2023-11-22T08:26:57;1.10;;;0.57;;
76105;SDS011;64832;45.274;5.880;2023-11-22T08:29:23;1.38;;;0.55;;
76105;SDS011;64832;45.274;5.880;2023-11-22T08:31:49;1.27;;;0.50;;
76105;SDS011;64832;45.274;5.880;2023-11-22T08:34:15;1.83;;;0.50;;
76105;SDS011;64832;45.274;5.880;2023-11-22T08:36:41;2.22;;;0.60;;
76105;SDS011;64832;45.274;5.880;2023-11-22T08:39:07;1.90;;;0.50;;
76105;SDS011;64832;45.274;5.880;2023-11-22T08:41:33;5.47;;;0.50;;
76105;SDS011;64832;45.274;5.880;2023-11-22T08:43:58;1.90;;;0.55;;
76105;SDS011;64832;45.274;5.880;2023-11-22T08:46:25;0.40;;;0.40;;
76105;SDS011;64832;45.274;5.880;2023-11-22T08:48:50;1.52;;;0.55;;
76105;SDS011;64832;45.274;5.880;2023-11-22T08:51:16;0.43;;;0.30;;
76105;SDS011;64832;45.274;5.880;2023-11-22T08:53:42;0.85;;;0.30;;
76105;SDS011;64832;45.274;5.880;2023-11-22T08:56:11;1.08;;;0.50;;
76105;SDS011;64832;45.274;5.880;2023-11-22T08:58:37;0.60;;;0.43;;
76105;SDS011;64832;45.274;5.880;2023-11-22T09:01:04;3.60;;;0.63;;
76105;SDS011;64832;45.274;5.880;2023-11-22T09:03:30;1.75;;;0.60;;
76105;SDS011;64832;45.274;5.880;2023-11-22T09:05:57;1.85;;;0.50;;
76105;SDS011;64832;45.274;5.880;2023-11-22T09:08:23;1.73;;;0.50;;
76105;SDS011;64832;45.274;5.880;2023-11-22T09:10:48;0.90;;;0.50;;
76105;SDS011;64832;45.274;5.880;2023-11-22T09:13:13;1.20;;;0.40;;
76105;SDS011;64832;45.274;5.880;2023-11-22T09:15:41;0.43;;;0.30;;
76105;SDS011;64832;45.274;5.880;2023-11-22T09:18:09;1.17;;;0.50;;
76105;SDS011;64832;45.274;5.880;2023-11-22T09:20:34;0.60;;;0.40;;
76105;SDS011;64832;45.274;5.880;2023-11-22T09:23:00;2.97;;;1.10;;
76105;SDS011;64832;45.274;5.880;2023-11-22T09:25:26;2.30;;;1.40;;
76105;SDS011;64832;45.274;5.880;2023-11-22T09:27:56;2.28;;;1.17;;
76105;SDS011;64832;45.274;5.880;2023-11-22T09:30:26;3.35;;;1.20;;
76105;SDS011;64832;45.274;5.880;2023-11-22T09:35:29;3.45;;;0.88;;
76105;SDS011;64832;45.274;5.880;2023-11-22T09:37:56;1.92;;;0.90;;
76105;SDS011;64832;45.274;5.880;2023-11-22T09:40:22;2.35;;;0.93;;
76105;SDS011;64832;45.274;5.880;2023-11-22T09:42:48;3.95;;;1.10;;
76105;SDS011;64832;45.274;5.880;2023-11-22T09:45:17;5.43;;;0.88;;
76105;SDS011;64832;45.274;5.880;2023-11-22T09:47:46;1.75;;;0.70;;
76105;SDS011;64832;45.274;5.880;2023-11-22T09:50:14;2.00;;;0.80;;
76105;SDS011;64832;45.274;5.880;2023-11-22T09:52:44;3.53;;;0.70;;
76105;SDS011;64832;45.274;5.880;2023-11-22T09:55:14;2.30;;;0.73;;
76105;SDS011;64832;45.274;5.880;2023-11-22T09:57:40;1.85;;;0.65;;
76105;SDS011;64832;45.274;5.880;2023-11-22T10:00:07;3.75;;;0.70;;
76105;SDS011;64832;45.274;5.880;2023-11-22T10:02:39;1.73;;;0.60;;
76105;SDS011;64832;45.274;5.880;2023-11-22T10:05:05;1.60;;;0.70;;
76105;SDS011;64832;45.274;5.880;2023-11-22T10:07:31;4.50;;;0.88;;
76105;SDS011;64832;45.274;5.880;2023-11-22T10:09:57;7.60;;;0.93;;
76105;SDS011;64832;45.274;5.880;2023-11-22T10:12:29;14.82;;;1.90;;
76105;SDS011;64832;45.274;5.880;2023-11-22T10:14:55;16.77;;;2.35;;
76105;SDS011;64832;45.274;5.880;2023-11-22T10:17:22;11.27;;;2.10;;
76105;SDS011;64832;45.274;5.880;2023-11-22T10:19:47;12.32;;;1.55;;
76105;SDS011;64832;45.274;5.880;2023-11-22T10:22:12;11.85;;;2.03;;
76105;SDS011;64832;45.274;5.880;2023-11-22T10:24:42;9.55;;;1.55;;
76105;SDS011;64832;45.274;5.880;2023-11-22T10:27:08;10.43;;;1.55;;
76105;SDS011;64832;45.274;5.880;2023-11-22T10:29:35;8.52;;;1.42;;
76105;SDS011;64832;45.274;5.880;2023-11-22T10:32:01;8.52;;;1.13;;
76105;SDS011;64832;45.274;5.880;2023-11-22T10:34:28;7.10;;;1.73;;
76105;SDS011;64832;45.274;5.880;2023-11-22T10:36:55;4.93;;;1.02;;
76105;SDS011;64832;45.274;5.880;2023-11-22T10:39:21;7.43;;;1.00;;
76105;SDS011;64832;45.274;5.880;2023-11-22T10:41:46;5.63;;;0.95;;
76105;SDS011;64832;45.274;5.880;2023-11-22T10:44:12;7.90;;;0.98;;
76105;SDS011;64832;45.274;5.880;2023-11-22T10:46:40;7.28;;;1.50;;
76105;SDS011;64832;45.274;5.880;2023-11-22T10:49:05;3.88;;;1.10;;
76105;SDS011;64832;45.274;5.880;2023-11-22T10:51:31;12.38;;;1.08;;
76105;SDS011;64832;45.274;5.880;2023-11-22T10:53:58;3.28;;;0.93;;
76105;SDS011;64832;45.274;5.880;2023-11-22T10:56:28;8.43;;;1.23;;
76105;SDS011;64832;45.274;5.880;2023-11-22T10:59:02;4.18;;;0.80;;
76105;SDS011;64832;45.274;5.880;2023-11-22T11:01:33;8.10;;;1.10;;
76105;SDS011;64832;45.274;5.880;2023-11-22T11:04:02;4.47;;;0.98;;
76105;SDS011;64832;45.274;5.880;2023-11-22T11:06:36;5.63;;;0.98;;
76105;SDS011;64832;45.274;5.880;2023-11-22T11:09:06;2.95;;;0.70;;
76105;SDS011;64832;45.274;5.880;2023-11-22T11:11:36;3.85;;;0.90;;
76105;SDS011;64832;45.274;5.880;2023-11-22T11:14:04;5.00;;;1.00;;
76105;SDS011;64832;45.274;5.880;2023-11-22T11:16:32;3.17;;;0.88;;
76105;SDS011;64832;45.274;5.880;2023-11-22T11:19:02;6.55;;;0.73;;
76105;SDS011;64832;45.274;5.880;2023-11-22T11:21:29;6.18;;;0.70;;
76105;SDS011;64832;45.274;5.880;2023-11-22T11:23:55;8.25;;;1.00;;
76105;SDS011;64832;45.274;5.880;2023-11-22T11:28:52;4.13;;;0.80;;
76105;SDS011;64832;45.274;5.880;2023-11-22T11:31:21;6.50;;;0.75;;
76105;SDS011;64832;45.274;5.880;2023-11-22T11:36:12;2.38;;;0.70;;
76105;SDS011;64832;45.274;5.880;2023-11-22T11:38:50;3.33;;;1.23;;
76105;SDS011;64832;45.274;5.880;2023-11-22T11:41:23;2.28;;;0.70;;
76105;SDS011;64832;45.274;5.880;2023-11-22T11:43:51;2.40;;;0.60;;
76105;SDS011;64832;45.274;5.880;2023-11-22T11:46:17;1.27;;;0.70;;
76105;SDS011;64832;45.274;5.880;2023-11-22T11:48:50;4.65;;;0.90;;
76105;SDS011;64832;45.274;5.880;2023-11-22T11:51:23;3.53;;;0.80;;
76105;SDS011;64832;45.274;5.880;2023-11-22T11:53:52;2.60;;;0.77;;
76105;SDS011;64832;45.274;5.880;2023-11-22T11:56:21;4.88;;;0.77;;
76105;SDS011;64832;45.274;5.880;2023-11-22T11:58:47;2.60;;;0.80;;
76105;SDS011;64832;45.274;5.880;2023-11-22T12:01:14;1.65;;;0.70;;
76105;SDS011;64832;45.274;5.880;2023-11-22T12:03:45;4.47;;;0.83;;
76105;SDS011;64832;45.274;5.880;2023-11-22T12:06:14;3.50;;;0.82;;
76105;SDS011;64832;45.274;5.880;2023-11-22T12:11:08;1.42;;;0.57;;
76105;SDS011;64832;45.274;5.880;2023-11-22T12:13:35;3.42;;;0.63;;
76105;SDS011;64832;45.274;5.880;2023-11-22T12:16:08;1.48;;;0.60;;
76105;SDS011;64832;45.274;5.880;2023-11-22T12:18:46;2.05;;;0.60;;
76105;SDS011;64832;45.274;5.880;2023-11-22T12:21:16;3.35;;;0.80;;
76105;SDS011;64832;45.274;5.880;2023-11-22T12:23:43;2.92;;;0.80;;
76105;SDS011;64832;45.274;5.880;2023-11-22T12:26:16;2.65;;;1.08;;
76105;SDS011;64832;45.274;5.880;2023-11-22T12:28:48;3.10;;;0.88;;
76105;SDS011;64832;45.274;5.880;2023-11-22T12:31:14;3.15;;;0.90;;
76105;SDS011;64832;45.274;5.880;2023-11-22T12:33:41;3.88;;;1.10;;
76105;SDS011;64832;45.274;5.880;2023-11-22T12:36:08;2.25;;;0.80;;
76105;SDS011;64832;45.274;5.880;2023-11-22T12:38:41;4.13;;;0.98;;
76105;SDS011;64832;45.274;5.880;2023-11-22T12:41:06;2.47;;;0.60;;
76105;SDS011;64832;45.274;5.880;2023-11-22T12:43:32;2.90;;;0.95;;
76105;SDS011;64832;45.274;5.880;2023-11-22T12:46:02;2.88;;;0.80;;
76105;SDS011;64832;45.274;5.880;2023-11-22T12:48:41;4.38;;;1.05;;
76105;SDS011;64832;45.274;5.880;2023-11-22T12:51:16;2.95;;;0.80;;
76105;SDS011;64832;45.274;5.880;2023-11-22T12:53:42;3.05;;;0.90;;
76105;SDS011;64832;45.274;5.880;2023-11-22T12:56:11;4.38;;;0.95;;
76105;SDS011;64832;45.274;5.880;2023-11-22T12:58:36;3.10;;;0.88;;
76105;SDS011;64832;45.274;5.880;2023-11-22T13:01:02;3.40;;;0.80;;
76105;SDS011;64832;45.274;5.880;2023-11-22T13:03:28;5.50;;;1.10;;
76105;SDS011;64832;45.274;5.880;2023-11-22T13:05:54;4.75;;;0.98;;
76105;SDS011;64832;45.274;5.880;2023-11-22T13:08:20;5.78;;;1.10;;
76105;SDS011;64832;45.274;5.880;2023-11-22T13:10:47;4.60;;;1.05;;
76105;SDS011;64832;45.274;5.880;2023-11-22T13:13:22;7.28;;;1.10;;
76105;SDS011;64832;45.274;5.880;2023-11-22T13:15:48;6.82;;;0.90;;
76105;SDS011;64832;45.274;5.880;2023-11-22T13:18:16;6.47;;;1.10;;
76105;SDS011;64832;45.274;5.880;2023-11-22T13:20:43;7.32;;;0.90;;
76105;SDS011;64832;45.274;5.880;2023-11-22T13:23:08;6.53;;;1.05;;
76105;SDS011;64832;45.274;5.880;2023-11-22T13:25:34;5.03;;;0.93;;
76105;SDS011;64832;45.274;5.880;2023-11-22T13:28:00;1.60;;;0.82;;
76105;SDS011;64832;45.274;5.880;2023-11-22T13:30:25;3.67;;;1.00;;
76105;SDS011;64832;45.274;5.880;2023-11-22T13:32:51;4.15;;;0.80;;
76105;SDS011;64832;45.274;5.880;2023-11-22T13:37:49;4.60;;;0.90;;
76105;SDS011;64832;45.274;5.880;2023-11-22T13:40:15;4.88;;;1.05;;
76105;SDS011;64832;45.274;5.880;2023-11-22T13:42:44;4.55;;;1.10;;
76105;SDS011;64832;45.274;5.880;2023-11-22T13:45:11;5.03;;;0.90;;
76105;SDS011;64832;45.274;5.880;2023-11-22T13:47:40;4.03;;;1.30;;
76105;SDS011;64832;45.274;5.880;2023-11-22T13:50:08;3.20;;;0.70;;
76105;SDS011;64832;45.274;5.880;2023-11-22T13:52:34;4.72;;;0.77;;
76105;SDS011;64832;45.274;5.880;2023-11-22T13:54:59;5.15;;;0.90;;
76105;SDS011;64832;45.274;5.880;2023-11-22T13:57:26;5.45;;;0.90;;
76105;SDS011;64832;45.274;5.880;2023-11-22T13:59:51;1.65;;;0.70;;
76105;SDS011;64832;45.274;5.880;2023-11-22T14:02:16;3.72;;;0.98;;
76105;SDS011;64832;45.274;5.880;2023-11-22T14:04:42;3.97;;;1.02;;
76105;SDS011;64832;45.274;5.880;2023-11-22T14:07:07;5.72;;;1.00;;
76105;SDS011;64832;45.274;5.880;2023-11-22T14:09:32;1.98;;;0.60;;
76105;SDS011;64832;45.274;5.880;2023-11-22T14:12:01;3.78;;;0.90;;
76105;SDS011;64832;45.274;5.880;2023-11-22T14:14:27;5.18;;;1.13;;
76105;SDS011;64832;45.274;5.880;2023-11-22T14:16:52;4.05;;;0.70;;
76105;SDS011;64832;45.274;5.880;2023-11-22T14:19:17;4.43;;;0.90;;
76105;SDS011;64832;45.274;5.880;2023-11-22T14:21:43;3.30;;;0.70;;
76105;SDS011;64832;45.274;5.880;2023-11-22T14:24:09;5.80;;;0.80;;
76105;SDS011;64832;45.274;5.880;2023-11-22T14:26:35;7.03;;;0.80;;
76105;SDS011;64832;45.274;5.880;2023-11-22T14:29:00;2.15;;;0.85;;
76105;SDS011;64832;45.274;5.880;2023-11-22T14:31:26;2.00;;;0.60;;
76105;SDS011;64832;45.274;5.880;2023-11-22T14:33:52;1.73;;;0.70;;
76105;SDS011;64832;45.274;5.880;2023-11-22T14:36:18;2.55;;;0.70;;
76105;SDS011;64832;45.274;5.880;2023-11-22T14:38:43;3.28;;;1.02;;
76105;SDS011;64832;45.274;5.880;2023-11-22T14:41:09;1.70;;;0.65;;
76105;SDS011;64832;45.274;5.880;2023-11-22T14:43:35;4.78;;;0.90;;
76105;SDS011;64832;45.274;5.880;2023-11-22T14:46:00;2.05;;;0.70;;
76105;SDS011;64832;45.274;5.880;2023-11-22T14:48:26;3.28;;;0.90;;
76105;SDS011;64832;45.274;5.880;2023-11-22T14:50:52;2.78;;;0.70;;
76105;SDS011;64832;45.274;5.880;2023-11-22T14:53:17;4.93;;;0.80;;
76105;SDS011;64832;45.274;5.880;2023-11-22T14:55:42;3.00;;;0.60;;